Terminal Aerodrome Forecast
Issued by NWS Wilmington, OH

Current Version | Previous Version | Text Only | Print | Product List | Glossary On
Versions: 1 2 3 4 5 6 7 8 9 10 11 12 13 14 15 16 17 18 19 20 21 22 23
467 FTUS41 KILN 260529 TAFCVG TAF KCVG 260529Z 2606/2712 23003KT P6SM SCT040 FM260900 VRB02KT 4SM BR SCT015 FM261400 28005KT P6SM SCT040 FM270000 05004KT P6SM SCT250=

USA.gov is the U.S. government's official web portal to all federal, state and local government web resources and services.